Time;durP1;ratioP1;P1;durP2;ratioP2;P2;SDS_P1;SDS_P2;PMS_P1;PMS_P2;Temp;Humidity;BMP_temperature;BMP_pressure;BME280_temperature;BME280_humidity;BME280_pressure;Samples;Min_cycle;Max_cycle;Signal;HPM_P1;HPM_P2
2022/05/26 00:01:22;;;;;;;3.92;2.05;;;;;;;14.73;66.59;99819.19;5005069;28;20052;-66
2022/05/26 00:03:48;;;;;;;3.65;1.58;;;;;;;14.70;66.24;99820.25;5005321;28;20060;-65
2022/05/26 00:06:18;;;;;;;4.15;1.60;;;;;;;14.72;66.01;99820.16;5004917;28;20128;-64
2022/05/26 00:08:44;;;;;;;5.55;1.92;;;;;;;14.68;65.83;99813.34;5005335;28;20045;-64
2022/05/26 00:11:31;;;;;;;5.45;3.45;;;;;;;14.66;65.66;99810.78;5004848;28;20041;-65
2022/05/26 00:13:58;;;;;;;3.88;1.77;;;;;;;14.65;65.67;99813.56;5005062;28;20033;-64
2022/05/26 00:16:24;;;;;;;3.40;1.80;;;;;;;14.68;65.15;99818.66;5004288;28;20046;-64
2022/05/26 00:18:49;;;;;;;5.45;2.17;;;;;;;14.70;65.32;99816.75;5005460;28;20084;-65
2022/05/26 00:21:21;;;;;;;2.00;1.27;;;;;;;14.74;64.38;99818.22;5009930;28;20041;-69
2022/05/26 00:23:47;;;;;;;4.28;1.60;;;;;;;14.76;64.23;99816.31;5008845;28;20041;-66
2022/05/26 00:26:14;;;;;;;2.40;1.40;;;;;;;14.77;64.49;99826.84;5008384;28;20026;-66
2022/05/26 00:28:39;;;;;;;5.43;2.30;;;;;;;14.79;64.31;99821.44;5008981;28;20040;-67
2022/05/26 00:31:04;;;;;;;2.05;1.52;;;;;;;14.80;64.43;99817.84;5009205;28;20405;-65
2022/05/26 00:33:30;;;;;;;2.50;1.73;;;;;;;14.81;64.22;99820.38;5008742;28;20120;-66
2022/05/26 00:36:02;;;;;;;5.07;1.80;;;;;;;14.82;64.52;99823.91;5008400;28;20045;-66
2022/05/26 00:38:27;;;;;;;3.45;1.60;;;;;;;14.85;64.66;99829.00;5008594;28;20048;-65
2022/05/26 00:41:02;;;;;;;2.20;1.45;;;;;;;14.84;64.66;99822.00;5008961;28;20034;-67
2022/05/26 00:43:28;;;;;;;3.50;2.10;;;;;;;14.84;65.07;99815.81;5008966;28;20524;-66
2022/05/26 00:45:53;;;;;;;3.08;1.60;;;;;;;14.80;65.90;99824.00;5006965;28;20041;-68
2022/05/26 00:48:24;;;;;;;2.80;1.50;;;;;;;14.78;66.40;99825.91;5010899;28;20104;-67
2022/05/26 00:50:57;;;;;;;2.33;1.33;;;;;;;14.76;66.53;99824.28;5010748;28;20042;-66
2022/05/26 00:53:58;;;;;;;5.85;2.33;;;;;;;14.78;66.57;99819.75;5009287;28;20042;-66
2022/05/26 00:56:32;;;;;;;4.75;1.42;;;;;;;14.81;66.17;99823.03;5002129;28;20516;-66
2022/05/26 00:59:06;;;;;;;2.72;1.50;;;;;;;14.85;66.07;99817.53;5009258;28;20658;-65
2022/05/26 01:01:31;;;;;;;3.22;1.63;;;;;;;14.81;65.89;99819.53;5013103;28;20856;-66
2022/05/26 01:04:07;;;;;;;2.03;1.38;;;;;;;14.79;66.20;99819.66;5029108;28;20045;-65
2022/05/26 01:06:44;;;;;;;3.85;1.40;;;;;;;14.80;65.85;99817.84;5012477;28;20075;-67
2022/05/26 01:09:10;;;;;;;4.10;1.58;;;;;;;14.78;66.23;99823.22;5030568;28;20190;-67
2022/05/26 01:11:37;;;;;;;4.20;1.58;;;;;;;14.81;66.09;99823.03;5009009;28;20138;-64
2022/05/26 01:14:09;;;;;;;7.95;1.77;;;;;;;14.80;66.06;99824.00;5007394;28;20676;-67
2022/05/26 01:17:04;;;;;;;2.42;1.70;;;;;;;14.80;65.97;99823.16;5007535;28;20172;-64
2022/05/26 01:19:49;;;;;;;2.65;1.40;;;;;;;14.80;66.29;99831.97;5008291;28;20492;-65
2022/05/26 01:22:27;;;;;;;4.13;1.10;;;;;;;14.87;66.35;99828.91;5007609;28;20435;-65
2022/05/26 01:25:29;;;;;;;2.20;1.50;;;;;;;14.87;66.23;99840.38;5007971;28;20038;-66
2022/05/26 01:28:19;;;;;;;3.10;1.85;;;;;;;14.83;66.30;99838.88;5008345;28;20132;-68
2022/05/26 01:30:54;;;;;;;5.32;1.85;;;;;;;14.79;66.25;99840.88;5007677;28;20137;-65
2022/05/26 01:33:19;;;;;;;1.60;1.35;;;;;;;14.80;66.27;99837.25;5008121;28;20788;-65
2022/05/26 01:36:13;;;;;;;1.88;1.30;;;;;;;14.80;66.41;99837.25;5008091;28;20038;-66
2022/05/26 01:39:01;;;;;;;3.38;1.30;;;;;;;14.79;66.82;99835.56;5008179;28;20084;-65
2022/05/26 01:41:47;;;;;;;12.35;2.20;;;;;;;14.84;66.89;99845.00;4996532;28;20053;-66
2022/05/26 01:44:25;;;;;;;2.15;1.10;;;;;;;14.88;67.14;99843.88;5007796;28;20087;-66
2022/05/26 01:46:50;;;;;;;4.82;1.60;;;;;;;14.87;66.67;99853.66;5007036;28;20599;-64
2022/05/26 01:49:32;;;;;;;2.08;1.30;;;;;;;14.87;67.39;99851.00;5007786;28;20046;-66
2022/05/26 01:52:07;;;;;;;2.25;1.40;;;;;;;14.85;67.95;99842.28;5007755;28;20405;-64
2022/05/26 01:54:50;;;;;;;4.97;1.53;;;;;;;14.86;68.79;99843.97;5005935;28;20040;-65
2022/05/26 01:57:22;;;;;;;2.42;1.55;;;;;;;14.83;68.88;99844.16;5006060;28;21071;-66
2022/05/26 01:59:51;;;;;;;4.80;1.70;;;;;;;14.79;69.08;99845.31;5007090;28;20046;-65
2022/05/26 02:02:28;;;;;;;4.75;1.88;;;;;;;14.70;68.99;99846.78;5007275;28;20100;-65
2022/05/26 02:04:58;;;;;;;4.97;1.75;;;;;;;14.68;68.89;99838.06;5007446;28;20034;-66
2022/05/26 02:07:29;;;;;;;4.05;1.85;;;;;;;14.69;68.92;99841.56;5006462;28;20034;-66
2022/05/26 02:09:58;;;;;;;4.03;2.10;;;;;;;14.69;68.73;99846.88;5007112;28;20042;-66
2022/05/26 02:12:33;;;;;;;4.55;1.98;;;;;;;14.68;68.69;99847.84;5007027;28;20038;-65
2022/05/26 02:15:07;;;;;;;5.07;1.83;;;;;;;14.65;68.91;99843.59;5007162;28;20037;-66
2022/05/26 02:17:38;;;;;;;2.70;1.67;;;;;;;14.63;68.81;99848.13;5006223;28;20490;-65
2022/05/26 02:20:09;;;;;;;5.03;2.20;;;;;;;14.66;68.97;99847.94;5007147;28;20061;-67
2022/05/26 02:22:56;;;;;;;5.10;2.20;;;;;;;14.68;68.87;99859.28;5006932;28;20153;-66
2022/05/26 02:25:25;;;;;;;3.00;1.70;;;;;;;14.67;68.77;99854.94;5006763;28;20765;-66
2022/05/26 02:27:54;;;;;;;3.00;1.80;;;;;;;14.64;68.97;99856.94;5006601;28;20413;-66
2022/05/26 02:30:21;;;;;;;5.30;2.67;;;;;;;14.64;69.28;99847.16;5006638;28;20046;-66
2022/05/26 02:32:49;;;;;;;4.63;2.53;;;;;;;14.67;69.15;99848.78;5006242;28;20038;-65
2022/05/26 02:35:14;;;;;;;6.22;2.20;;;;;;;14.66;68.91;99850.56;5005573;28;20038;-67
2022/05/26 02:37:42;;;;;;;6.85;2.65;;;;;;;14.65;68.97;99858.66;5006360;28;20164;-67
2022/05/26 02:40:09;;;;;;;10.27;3.67;;;;;;;14.57;69.11;99854.69;5006654;28;20099;-66
2022/05/26 02:42:43;;;;;;;5.00;2.22;;;;;;;14.54;69.27;99859.34;5002848;28;20124;-66
2022/05/26 02:45:09;;;;;;;5.20;2.35;;;;;;;14.56;69.30;99860.09;5005193;28;20029;-65
2022/05/26 02:47:42;;;;;;;5.50;2.50;;;;;;;14.58;69.47;99858.19;5006346;28;20048;-65
2022/05/26 02:50:30;;;;;;;6.47;2.40;;;;;;;14.57;69.61;99859.13;5006785;28;20045;-66
2022/05/26 02:53:14;;;;;;;10.45;3.38;;;;;;;14.59;69.24;99868.72;5005700;28;20034;-66
2022/05/26 02:55:59;;;;;;;7.18;2.83;;;;;;;14.58;69.42;99869.66;5005835;28;20041;-65
2022/05/26 02:59:02;;;;;;;5.50;2.42;;;;;;;14.59;69.39;99867.84;5006315;28;20117;-66
2022/05/26 03:01:40;;;;;;;5.03;2.13;;;;;;;14.57;69.86;99862.66;4983281;28;20053;-65
2022/05/26 03:04:15;;;;;;;7.15;2.53;;;;;;;14.55;69.69;99869.00;4985137;28;20041;-66
2022/05/26 03:06:46;;;;;;;10.07;3.53;;;;;;;14.57;70.12;99870.63;4997361;28;20117;-66
2022/05/26 03:09:13;;;;;;;4.93;2.60;;;;;;;14.58;69.78;99876.75;5006441;28;20444;-65
2022/05/26 03:11:43;;;;;;;5.72;2.40;;;;;;;14.56;69.82;99879.50;5006061;28;20577;-66
2022/05/26 03:14:08;;;;;;;6.18;2.58;;;;;;;14.58;69.83;99876.75;5006076;28;20048;-65
2022/05/26 03:16:33;;;;;;;4.38;2.45;;;;;;;14.59;69.91;99883.75;5005243;28;20045;-64
2022/05/26 03:18:59;;;;;;;9.68;2.95;;;;;;;14.58;69.52;99879.41;5006105;28;20037;-65
2022/05/26 03:21:24;;;;;;;4.43;2.25;;;;;;;14.57;70.06;99883.00;5006040;28;20532;-66
2022/05/26 03:23:50;;;;;;;8.93;2.58;;;;;;;14.57;69.98;99881.22;5005706;28;20072;-66
2022/05/26 03:26:16;;;;;;;5.40;2.50;;;;;;;14.57;69.79;99877.69;5005428;28;20121;-66
2022/05/26 03:28:41;;;;;;;6.60;2.40;;;;;;;14.55;69.85;99883.13;5006080;28;20113;-66
2022/05/26 03:31:08;;;;;;;12.35;4.88;;;;;;;14.52;69.97;99875.34;5004329;28;20083;-66
2022/05/26 03:40:46;;;;;;;5.97;2.85;;;;;;;14.55;70.24;99871.66;4998677;28;20529;-65
2022/05/26 03:41:47;;;;;;;9.38;3.70;;;;;;;14.57;69.96;99889.19;5004591;28;20547;-66
2022/05/26 03:44:12;;;;;;;5.20;2.55;;;;;;;14.57;69.68;99894.50;5004136;28;20124;-65
2022/05/26 03:46:38;;;;;;;8.90;3.65;;;;;;;14.57;69.98;99889.19;5003556;28;20034;-66
2022/05/26 03:49:04;;;;;;;8.18;3.30;;;;;;;14.57;69.84;99896.28;5004712;28;20390;-66
2022/05/26 03:51:29;;;;;;;7.70;3.85;;;;;;;14.54;70.03;99894.66;5005401;28;20043;-65
2022/05/26 03:53:55;;;;;;;9.45;3.33;;;;;;;14.54;70.06;99896.47;5004737;28;20061;-68
2022/05/26 03:56:20;;;;;;;10.23;4.35;;;;;;;14.55;69.87;99896.38;5003348;28;20497;-66
2022/05/26 03:58:45;;;;;;;10.15;4.05;;;;;;;14.56;69.99;99897.22;5005510;28;20040;-66
2022/05/26 04:01:11;;;;;;;6.95;3.65;;;;;;;14.56;70.29;99913.16;5005541;28;20042;-67
2022/05/26 04:03:36;;;;;;;7.60;3.65;;;;;;;14.57;69.96;99913.06;5005414;28;20088;-65
2022/05/26 04:06:02;;;;;;;14.00;4.43;;;;;;;14.58;70.17;99921.88;5004847;28;20037;-65
2022/05/26 04:08:28;;;;;;;7.32;3.30;;;;;;;14.56;69.98;99911.34;5005434;28;20096;-66
2022/05/26 04:10:53;;;;;;;8.35;4.47;;;;;;;14.58;70.19;99919.22;5005156;28;20512;-65
2022/05/26 04:13:19;;;;;;;8.43;3.40;;;;;;;14.63;70.23;99924.22;5005351;28;20498;-65
2022/05/26 04:15:44;;;;;;;7.57;3.63;;;;;;;14.62;70.16;99935.78;5006098;28;20065;-66
2022/05/26 04:18:09;;;;;;;7.40;4.40;;;;;;;14.62;70.12;99925.16;5006009;28;20038;-67
2022/05/26 04:20:35;;;;;;;11.60;4.15;;;;;;;14.64;70.27;99921.47;5006060;28;20447;-64
2022/05/26 04:23:00;;;;;;;5.43;3.63;;;;;;;14.67;70.20;99931.91;5006513;28;20032;-61
2022/05/26 04:25:26;;;;;;;7.18;4.18;;;;;;;14.69;69.95;99937.09;5005517;28;20112;-65
2022/05/26 04:27:55;;;;;;;6.47;3.45;;;;;;;14.66;70.26;99935.50;5004908;28;20038;-66
2022/05/26 04:30:22;;;;;;;9.32;4.95;;;;;;;14.65;70.51;99932.94;5005568;28;20056;-66
2022/05/26 04:32:48;;;;;;;10.23;4.05;;;;;;;14.66;70.68;99935.50;5005174;28;20033;-66
2022/05/26 04:35:14;;;;;;;10.55;4.25;;;;;;;14.67;70.63;99941.66;5005497;28;20117;-66
2022/05/26 04:37:40;;;;;;;9.95;3.97;;;;;;;14.64;70.56;99940.03;5004517;28;20040;-66
2022/05/26 04:40:07;;;;;;;12.88;4.75;;;;;;;14.67;70.31;99941.66;5005343;28;20107;-66
2022/05/26 04:42:33;;;;;;;8.00;3.83;;;;;;;14.66;70.50;99953.22;5004828;28;20513;-66
2022/05/26 04:44:59;;;;;;;8.38;4.20;;;;;;;14.64;70.62;99944.50;5005384;28;20084;-66
2022/05/26 04:47:25;;;;;;;7.53;4.60;;;;;;;14.66;70.56;99943.44;5004663;28;20524;-66
2022/05/26 04:49:50;;;;;;;10.98;5.57;;;;;;;14.68;70.60;99953.97;5005197;28;20098;-64
2022/05/26 04:52:19;;;;;;;10.15;4.05;;;;;;;14.67;70.54;99953.13;5005192;28;20049;-66
2022/05/26 04:54:45;;;;;;;13.15;6.07;;;;;;;14.67;70.53;99961.09;5005549;28;20660;-67
2022/05/26 04:57:12;;;;;;;8.45;4.28;;;;;;;14.71;70.22;99959.09;5005332;28;20704;-64
2022/05/26 04:59:38;;;;;;;10.98;4.47;;;;;;;14.74;70.12;99956.22;5005713;28;20030;-66
2022/05/26 05:02:04;;;;;;;9.75;3.70;;;;;;;14.81;70.30;99961.03;5004620;28;20037;-64
2022/05/26 05:04:30;;;;;;;8.68;4.88;;;;;;;14.84;69.87;99967.09;5004793;28;20040;-63
2022/05/26 05:06:56;;;;;;;12.93;5.18;;;;;;;14.88;69.89;99968.63;5007505;28;20478;-65
2022/05/26 05:09:22;;;;;;;12.70;4.78;;;;;;;14.89;69.91;99967.66;5008931;28;20084;-66
2022/05/26 05:11:47;;;;;;;9.85;4.00;;;;;;;14.89;69.66;99965.00;5008762;28;20038;-66
2022/05/26 05:14:13;;;;;;;19.27;4.93;;;;;;;14.89;69.44;99968.53;5009306;28;20038;-65
2022/05/26 05:16:45;;;;;;;11.93;4.20;;;;;;;14.93;69.65;99963.88;5006471;28;20837;-68
2022/05/26 05:19:12;;;;;;;12.15;5.47;;;;;;;14.92;69.61;99973.66;5008480;28;20042;-66
2022/05/26 05:21:55;;;;;;;10.23;5.47;;;;;;;14.89;69.54;99965.00;5008030;28;20126;-65
2022/05/26 05:24:26;;;;;;;7.10;4.43;;;;;;;14.90;69.72;99974.69;5007979;28;20172;-66
2022/05/26 05:26:57;;;;;;;10.52;5.40;;;;;;;14.92;69.92;99981.63;5006266;28;20503;-64
2022/05/26 05:29:27;;;;;;;10.82;5.65;;;;;;;14.91;72.06;99981.69;5008438;28;20044;-66
2022/05/26 05:31:59;;;;;;;11.55;5.22;;;;;;;14.80;72.47;99988.56;5008084;28;20046;-66
2022/05/26 05:34:30;;;;;;;9.93;5.78;;;;;;;14.70;74.19;99992.75;5008413;28;20029;-65
2022/05/26 05:36:56;;;;;;;12.63;6.35;;;;;;;14.64;75.48;99987.81;5007642;28;20030;-63
2022/05/26 05:39:23;;;;;;;10.38;4.55;;;;;;;14.59;75.37;99990.78;5007837;28;20453;-66
2022/05/26 05:41:48;;;;;;;22.77;7.60;;;;;;;14.58;75.76;99996.16;5007744;28;20038;-64
2022/05/26 05:44:13;;;;;;;14.05;6.25;;;;;;;14.56;75.80;100000.69;5008616;28;20057;-62
2022/05/26 05:46:54;;;;;;;12.85;5.70;;;;;;;14.49;75.35;99992.22;5007306;28;20034;-64
2022/05/26 05:49:24;;;;;;;10.60;5.72;;;;;;;14.47;75.48;99999.47;5007950;28;20080;-65
2022/05/26 05:51:50;;;;;;;12.90;5.90;;;;;;;14.49;75.69;100004.66;5008306;28;20038;-65
2022/05/26 05:54:16;;;;;;;15.45;6.78;;;;;;;14.48;74.99;100005.63;5008516;28;20037;-63
2022/05/26 05:56:41;;;;;;;14.63;5.85;;;;;;;14.52;75.02;100007.09;5006539;28;20473;-64
2022/05/26 05:59:07;;;;;;;14.15;6.65;;;;;;;14.51;74.56;100010.72;5007677;28;20049;-67
2022/05/26 06:01:32;;;;;;;16.50;7.20;;;;;;;14.50;74.80;100003.72;5007298;28;20030;-66
2022/05/26 06:03:57;;;;;;;13.43;5.50;;;;;;;14.48;74.49;100024.19;5007607;28;20057;-64
2022/05/26 06:06:23;;;;;;;14.18;8.40;;;;;;;14.52;74.86;100012.41;5006656;28;20784;-65
2022/05/26 06:08:48;;;;;;;14.65;6.28;;;;;;;14.52;74.51;100020.38;5007303;28;20038;-65
2022/05/26 06:11:14;;;;;;;10.13;6.05;;;;;;;14.54;75.05;100018.50;5007508;28;20442;-65
2022/05/26 06:13:39;;;;;;;15.88;6.18;;;;;;;14.58;74.59;100020.03;5007147;28;20060;-66
2022/05/26 06:16:05;;;;;;;15.82;6.80;;;;;;;14.59;75.52;100025.25;5006478;28;20066;-67
2022/05/26 06:18:31;;;;;;;12.05;6.32;;;;;;;14.65;74.96;100028.47;5006888;28;20068;-65
2022/05/26 06:21:05;;;;;;;14.80;6.93;;;;;;;14.62;74.03;100029.53;5007480;28;20450;-65
2022/05/26 06:23:31;;;;;;;15.30;6.15;;;;;;;14.65;73.73;100039.09;5008391;28;20042;-66
2022/05/26 06:25:57;;;;;;;11.23;6.15;;;;;;;14.60;73.72;100040.22;5007056;28;20045;-65
2022/05/26 06:31:08;;;;;;;13.10;6.10;;;;;;;14.73;73.88;100042.97;5007064;28;20531;-66
2022/05/26 06:39:02;;;;;;;17.88;7.47;;;;;;;15.00;71.87;100051.00;5006977;28;20548;-66
2022/05/26 06:44:12;;;;;;;15.70;7.10;;;;;;;14.97;71.28;100060.97;5006859;28;20053;-65
2022/05/26 06:46:37;;;;;;;13.15;6.18;;;;;;;15.03;71.88;100066.72;5004598;28;20045;-64
2022/05/26 06:49:02;;;;;;;12.30;6.97;;;;;;;15.08;70.96;100069.09;5006571;28;20030;-65
2022/05/26 06:51:29;;;;;;;12.93;7.68;;;;;;;15.12;70.97;100069.75;5004021;28;20048;-66
2022/05/26 06:53:55;;;;;;;15.57;6.80;;;;;;;15.14;70.86;100070.53;5004846;28;20486;-66
2022/05/26 06:56:20;;;;;;;15.88;6.85;;;;;;;15.10;70.19;100079.63;5005619;28;20048;-65
2022/05/26 06:58:46;;;;;;;14.77;7.80;;;;;;;15.10;70.24;100072.50;5005915;28;20040;-66
2022/05/26 07:01:14;;;;;;;14.30;7.70;;;;;;;15.09;70.48;100077.91;5004756;28;20662;-65
2022/05/26 07:03:40;;;;;;;15.25;6.03;;;;;;;15.08;70.05;100089.47;5006342;28;20164;-65
2022/05/26 07:06:12;;;;;;;13.30;6.82;;;;;;;15.10;70.24;100090.25;5006241;28;20424;-64
2022/05/26 07:08:38;;;;;;;15.85;6.07;;;;;;;15.20;69.82;100096.69;5006256;28;20068;-66
2022/05/26 07:11:03;;;;;;;12.23;6.43;;;;;;;15.23;69.76;100094.69;4995098;28;20513;-65
2022/05/26 07:13:29;;;;;;;12.23;6.07;;;;;;;15.20;69.38;100094.88;5031660;28;20044;-65
2022/05/26 07:15:54;;;;;;;13.02;6.30;;;;;;;15.18;69.31;100095.91;5008929;28;20176;-65
2022/05/26 07:18:20;;;;;;;19.02;6.30;;;;;;;15.29;69.86;100098.75;5012522;28;20034;-64
2022/05/26 07:20:45;;;;;;;17.35;6.47;;;;;;;15.34;69.52;100090.50;5011137;28;20041;-64
2022/05/26 07:23:10;;;;;;;14.35;5.75;;;;;;;15.46;69.48;100097.69;5010585;28;20048;-64
2022/05/26 07:25:43;;;;;;;14.50;6.53;;;;;;;15.58;68.78;100099.53;5009423;28;20583;-66
2022/05/26 07:28:12;;;;;;;19.00;5.47;;;;;;;15.64;68.21;100100.94;5008535;28;20034;-65
2022/05/26 07:30:38;;;;;;;11.05;7.20;;;;;;;15.63;67.79;100105.41;5005643;28;20034;-66
2022/05/26 07:33:04;;;;;;;15.65;6.00;;;;;;;15.59;67.88;100103.88;5006500;28;20208;-64
2022/05/26 07:35:29;;;;;;;13.50;5.82;;;;;;;15.85;66.36;100112.88;5006452;28;20124;-65
2022/05/26 07:43:23;;;;;;;10.55;5.32;;;;;;;16.82;63.47;100111.63;5006344;28;20052;-65
2022/05/26 07:45:50;;;;;;;10.40;5.25;;;;;;;16.84;62.89;100114.22;5006225;28;20038;-64
2022/05/26 07:48:16;;;;;;;12.93;5.15;;;;;;;16.94;63.16;100113.44;5005931;28;20124;-65
2022/05/26 07:50:41;;;;;;;9.23;4.93;;;;;;;16.98;62.71;100113.22;5006319;28;20044;-65
2022/05/26 07:53:07;;;;;;;11.80;5.32;;;;;;;17.08;62.09;100106.28;5006312;28;20038;-65
2022/05/26 07:55:34;;;;;;;14.23;6.25;;;;;;;17.09;62.08;100105.34;5006804;28;20045;-65
2022/05/26 07:57:59;;;;;;;10.07;5.20;;;;;;;17.08;61.60;100117.81;5005121;28;20048;-64
2022/05/26 08:00:25;;;;;;;8.23;4.90;;;;;;;17.09;61.38;100116.00;5005740;28;20037;-65
2022/05/26 08:02:51;;;;;;;9.55;4.50;;;;;;;17.15;61.50;100116.41;5005767;28;20211;-65
2022/05/26 08:05:16;;;;;;;11.38;5.18;;;;;;;17.46;60.19;100124.00;5005688;28;20068;-65
2022/05/26 08:07:43;;;;;;;13.27;4.88;;;;;;;17.75;59.08;100114.72;5004583;28;20072;-65
2022/05/26 08:10:09;;;;;;;12.93;6.18;;;;;;;18.15;58.05;100117.09;5005426;28;20041;-66
2022/05/26 08:12:34;;;;;;;12.50;5.03;;;;;;;18.49;56.86;100114.53;5005361;28;20621;-65
2022/05/26 08:15:00;;;;;;;13.85;4.63;;;;;;;18.82;56.05;100118.25;5005687;28;20038;-65
2022/05/26 08:17:25;;;;;;;15.73;4.57;;;;;;;18.62;56.05;100122.44;5003480;28;20068;-64
2022/05/26 08:19:51;;;;;;;12.00;4.00;;;;;;;18.38;55.62;100114.50;5004411;28;20614;-65
2022/05/26 08:22:20;;;;;;;12.20;4.40;;;;;;;18.13;55.79;100123.53;5005348;28;20065;-63
2022/05/26 08:24:53;;;;;;;13.20;4.93;;;;;;;18.29;55.80;100124.06;5005512;28;20053;-63
2022/05/26 08:27:19;;;;;;;9.40;4.55;;;;;;;18.43;54.63;100120.34;5004778;28;20571;-63
2022/05/26 08:29:45;;;;;;;11.63;3.63;;;;;;;18.51;54.94;100114.41;5005383;28;20033;-67
2022/05/26 08:32:11;;;;;;;16.80;4.97;;;;;;;18.64;54.55;100121.34;5005344;28;20038;-66
2022/05/26 08:34:36;;;;;;;8.73;4.18;;;;;;;18.49;54.29;100132.38;5003690;28;20091;-66
2022/05/26 08:37:03;;;;;;;11.48;4.53;;;;;;;18.35;55.26;100133.44;5004878;28;20046;-66
2022/05/26 08:39:31;;;;;;;7.72;4.22;;;;;;;18.18;55.55;100148.88;4987410;28;20356;-65
2022/05/26 08:41:56;;;;;;;9.52;4.40;;;;;;;18.21;55.58;100143.34;5008428;28;20041;-65
2022/05/26 08:44:32;;;;;;;14.75;4.63;;;;;;;18.43;54.85;100142.56;5008907;28;20044;-65
2022/05/26 08:47:04;;;;;;;12.13;4.30;;;;;;;18.78;54.17;100139.03;5007095;28;20696;-64
2022/05/26 08:49:44;;;;;;;12.55;4.38;;;;;;;18.83;51.89;100144.84;5008579;28;20444;-64
2022/05/26 08:52:15;;;;;;;14.38;3.88;;;;;;;18.77;51.61;100153.34;5008360;28;20042;-65
2022/05/26 08:54:58;;;;;;;9.60;3.97;;;;;;;18.79;52.08;100143.38;5008318;28;20057;-66
2022/05/26 08:57:31;;;;;;;10.63;3.78;;;;;;;18.66;52.29;100153.31;5008027;28;20092;-66
2022/05/26 08:59:56;;;;;;;11.05;4.57;;;;;;;18.45;52.60;100164.63;5008569;28;20041;-65
2022/05/26 09:02:27;;;;;;;9.52;4.13;;;;;;;18.32;53.09;100171.03;5008366;28;20041;-64
2022/05/26 09:04:56;;;;;;;10.07;3.63;;;;;;;18.21;53.46;100167.34;5008136;28;20033;-66
2022/05/26 09:13:06;;;;;;;11.45;3.88;;;;;;;20.13;48.35;100167.44;5008816;28;20099;-65
2022/05/26 09:15:34;;;;;;;7.22;3.00;;;;;;;21.06;46.22;100161.34;5008419;28;20559;-64
2022/05/26 09:18:10;;;;;;;8.82;3.00;;;;;;;21.52;47.06;100167.22;5007175;28;20037;-56
2022/05/26 09:20:41;;;;;;;7.28;2.88;;;;;;;21.26;45.97;100166.78;5007087;28;20037;-51
2022/05/26 09:23:10;;;;;;;9.43;3.85;;;;;;;21.41;45.46;100173.50;5007236;28;20041;-56
2022/05/26 09:25:52;;;;;;;12.60;4.57;;;;;;;22.54;42.98;100172.28;5007757;28;20053;-51
2022/05/26 09:28:29;;;;;;;7.78;3.47;;;;;;;23.63;41.00;100169.94;5008104;28;20042;-51
2022/05/26 09:30:55;;;;;;;11.65;3.60;;;;;;;24.18;39.58;100183.38;5007884;28;20046;-54
2022/05/26 09:33:30;;;;;;;6.18;3.22;;;;;;;24.68;38.41;100176.59;5007769;28;20121;-57
2022/05/26 09:36:12;;;;;;;;;;;;;;;25.26;36.97;100176.81;5007549;28;20046;-55
2022/05/26 09:38:38;;;;;;;6.40;3.92;;;;;;;24.92;37.29;100176.75;5007777;28;19918;-55
2022/05/26 09:41:07;;;;;;;8.85;3.42;;;;;;;23.93;38.86;100179.59;5005385;28;20068;-51
2022/05/26 09:43:33;;;;;;;13.18;4.88;;;;;;;24.01;39.68;100179.66;5007560;28;20057;-56
2022/05/26 09:46:07;;;;;;;9.13;4.55;;;;;;;23.14;41.82;100179.09;5007049;28;20061;-52
2022/05/26 09:48:36;;;;;;;11.38;3.78;;;;;;;22.45;42.92;100182.06;5007984;28;20037;-57
2022/05/26 09:51:01;;;;;;;13.38;5.15;;;;;;;22.50;43.41;100199.44;5007171;28;20141;-56
2022/05/26 09:53:31;;;;;;;6.10;4.17;;;;;;;23.07;42.11;100199.50;5006826;28;20137;-58
2022/05/26 09:55:57;;;;;;;8.98;3.78;;;;;;;24.08;39.29;100196.91;5006946;28;20273;-58
2022/05/26 09:58:43;;;;;;;6.60;3.40;;;;;;;24.94;37.76;100199.03;5007484;28;20631;-57
2022/05/26 10:01:20;;;;;;;11.77;5.13;;;;;;;25.43;36.61;100206.59;5007261;28;20041;-54
2022/05/26 10:03:57;;;;;;;6.90;3.78;;;;;;;25.62;35.83;100197.38;5007509;28;20041;-56
2022/05/26 10:06:29;;;;;;;11.13;4.50;;;;;;;24.91;37.54;100196.66;5006713;28;20057;-51
2022/05/26 10:09:09;;;;;;;7.53;4.55;;;;;;;24.24;38.20;100203.47;5006592;28;20095;-66
2022/05/26 10:12:02;;;;;;;10.05;4.82;;;;;;;23.72;39.58;100198.66;5007163;28;20052;-63
2022/05/26 10:14:49;;;;;;;11.68;5.60;;;;;;;22.76;41.29;100211.44;5006045;28;20037;-67
2022/05/26 10:17:33;;;;;;;8.98;4.28;;;;;;;23.40;39.30;100215.25;5004860;28;20065;-65
2022/05/26 10:20:22;;;;;;;8.20;4.32;;;;;;;23.23;39.07;100214.19;5005970;28;20038;-66
2022/05/26 10:23:07;;;;;;;9.18;4.20;;;;;;;22.39;40.50;100217.53;5009421;28;20066;-66
2022/05/26 10:25:51;;;;;;;10.90;4.53;;;;;;;22.93;38.58;100210.69;5006392;28;20030;-66
2022/05/26 10:28:52;;;;;;;10.07;4.55;;;;;;;22.26;40.63;100215.13;5006400;28;20563;-67
2022/05/26 10:31:35;;;;;;;9.27;3.95;;;;;;;22.85;39.29;100208.72;5006399;28;20049;-66
2022/05/26 10:34:22;;;;;;;9.20;4.05;;;;;;;23.85;36.84;100206.41;5006566;28;20121;-65
2022/05/26 10:37:14;;;;;;;5.60;4.05;;;;;;;23.28;38.33;100201.13;5005811;28;20195;-67
2022/05/26 10:40:03;;;;;;;10.82;4.88;;;;;;;22.80;39.52;100208.31;5006323;28;20121;-67
2022/05/26 10:42:33;;;;;;;10.60;5.70;;;;;;;22.05;41.49;100210.69;5006256;28;20045;-66
2022/05/26 10:45:06;;;;;;;9.00;5.63;;;;;;;22.84;40.01;100214.25;5006699;28;20537;-65
2022/05/26 10:47:42;;;;;;;8.88;4.63;;;;;;;23.51;37.85;100212.38;5005878;28;20806;-66
2022/05/26 10:50:31;;;;;;;11.10;5.28;;;;;;;24.10;36.99;100211.09;5006272;28;20121;-67
2022/05/26 10:53:07;;;;;;;8.13;4.57;;;;;;;24.58;36.06;100201.78;5004141;28;20141;-67
2022/05/26 10:55:44;;;;;;;6.30;4.65;;;;;;;24.09;36.68;100208.53;5005815;28;20064;-68
2022/05/26 10:58:34;;;;;;;13.30;5.88;;;;;;;24.14;37.11;100204.38;5004133;28;20044;-67
2022/05/26 11:01:08;;;;;;;13.20;5.72;;;;;;;23.44;38.55;100206.75;5004495;28;20504;-66
2022/05/26 11:03:42;;;;;;;9.13;5.80;;;;;;;23.02;38.85;100217.09;5006137;28;20042;-68
2022/05/26 11:06:25;;;;;;;8.35;3.88;;;;;;;22.81;38.94;100211.84;5004049;28;20044;-67
2022/05/26 11:08:57;;;;;;;12.25;5.75;;;;;;;22.28;39.80;100223.91;5001996;28;20045;-66
2022/05/26 11:11:22;;;;;;;13.88;4.43;;;;;;;21.74;41.34;100226.03;5000630;28;20069;-67
2022/05/26 11:14:02;;;;;;;10.60;5.43;;;;;;;21.41;42.49;100221.78;5004275;28;20128;-67
2022/05/26 11:19:32;;;;;;;11.07;5.18;;;;;;;21.76;41.16;100228.59;4994345;28;20100;-64
2022/05/26 11:21:59;;;;;;;7.28;4.40;;;;;;;21.49;41.67;100222.00;5000850;28;20046;-66
2022/05/26 11:24:25;;;;;;;8.80;4.25;;;;;;;21.26;41.71;100223.94;5004599;28;20034;-66
2022/05/26 11:27:09;;;;;;;8.65;4.13;;;;;;;21.07;42.22;100215.78;5003845;28;20056;-66
2022/05/26 11:30:05;;;;;;;10.63;4.70;;;;;;;21.31;42.18;100215.50;5005310;28;20695;-66
2022/05/26 11:38:32;;;;;;;8.50;3.78;;;;;;;21.39;40.94;100211.22;5005083;28;20071;-66
2022/05/26 11:41:00;;;;;;;9.18;4.07;;;;;;;21.52;41.14;100213.66;5004291;28;20041;-66
2022/05/26 11:43:30;;;;;;;8.45;3.20;;;;;;;21.71;40.84;100210.19;5004976;28;20505;-65
2022/05/26 11:45:57;;;;;;;6.68;3.50;;;;;;;21.56;40.89;100206.19;5003539;28;20127;-64
2022/05/26 11:48:32;;;;;;;10.77;3.50;;;;;;;21.32;41.06;100206.50;5001873;28;20038;-65
2022/05/26 11:51:02;;;;;;;8.85;4.07;;;;;;;21.51;41.50;100213.78;5001610;28;20049;-65
2022/05/26 11:53:27;;;;;;;9.48;3.50;;;;;;;21.58;41.09;100212.25;5003653;28;20044;-64
2022/05/26 11:55:58;;;;;;;11.85;3.40;;;;;;;21.41;41.43;100211.06;4999679;28;20500;-64
2022/05/26 11:58:36;;;;;;;7.03;3.47;;;;;;;21.50;41.41;100212.94;5004215;28;20458;-65
2022/05/26 12:01:16;;;;;;;12.20;3.28;;;;;;;21.44;41.83;100197.41;5001936;28;20125;-65
2022/05/26 12:03:54;;;;;;;8.85;3.35;;;;;;;21.47;41.60;100201.66;5000076;28;20033;-66
2022/05/26 12:06:42;;;;;;;6.07;2.88;;;;;;;21.49;41.28;100207.72;5003657;28;20113;-65
2022/05/26 12:09:11;;;;;;;10.25;3.28;;;;;;;21.57;39.35;100203.38;5004971;28;20037;-67
2022/05/26 12:12:08;;;;;;;10.85;3.33;;;;;;;21.67;38.87;100206.09;5005026;28;20077;-63
2022/05/26 12:14:47;;;;;;;4.88;2.22;;;;;;;21.83;38.87;100197.50;5004638;28;20473;-65
2022/05/26 12:17:33;;;;;;;6.45;2.65;;;;;;;22.07;39.19;100197.13;5001246;28;20061;-66
2022/05/26 12:20:05;;;;;;;5.25;2.30;;;;;;;22.08;38.86;100191.63;5006117;28;20115;-67
2022/05/26 12:22:32;;;;;;;7.13;2.67;;;;;;;22.22;38.38;100197.59;5005317;28;20037;-66